Huffman, Texas
Current Conditions -  °F | °C
As of 7:53 PM on Wednesday 17 Dec 2014 (Local Time) from KIAH Reporting Station
Overcast Overcast  
Wind Chill: 59°   Ceiling: 1700
Heat Index: 59°   Visibility: 10mi
Dew Point: 53°   Wind: 12mph
Humidity: 81%   Direction: 130°SE
Pressure: 30.1"   Gusts: NA
Location:  30.03°N, 95.09°W
Report Text: KIAH 180153Z 13010KT 10SM OVC017 15/12 A3010 RMK AO2 RAE16 SLP193 P0000 T01500117
Loading
Personal Weather Stations






























Interactive Weather Map New forecast layout! Learn more

10-Day Weather Forecast

Advertisements
Track Severe Weather on mobile